Time;durP1;ratioP1;P1;durP2;ratioP2;P2;SDS_P1;SDS_P2;PMS_P1;PMS_P2;Temp;Humidity;BMP_temperature;BMP_pressure;BME280_temperature;BME280_humidity;BME280_pressure;Samples;Min_cycle;Max_cycle;Signal;HPM_P1;HPM_P2
2022/10/17 00:00:18;;;;;;;4.68;2.58;;;;;;;;;;5096536;28;20370;-71
2022/10/17 00:02:44;;;;;;;2.80;2.47;;;;;;;;;;5096320;28;20060;-70
2022/10/17 00:05:11;;;;;;;3.30;2.40;;;;;;;;;;5097683;28;20477;-70
2022/10/17 00:07:37;;;;;;;2.95;2.30;;;;;;;;;;5096494;28;20020;-70
2022/10/17 00:10:04;;;;;;;3.38;2.28;;;;;;;;;;5096848;28;20020;-70
2022/10/17 00:12:30;;;;;;;3.17;2.60;;;;;;;;;;5096125;28;20392;-70
2022/10/17 00:14:55;;;;;;;5.47;2.67;;;;;;;;;;5091611;28;20028;-70
2022/10/17 00:17:21;;;;;;;5.00;2.83;;;;;;;;;;5090968;28;20024;-70
2022/10/17 00:19:47;;;;;;;3.25;2.50;;;;;;;;;;5095619;28;20465;-70
2022/10/17 00:22:14;;;;;;;4.35;2.35;;;;;;;;;;5093806;28;20081;-69
2022/10/17 00:24:39;;;;;;;4.18;2.83;;;;;;;;;;5093306;28;20169;-70
2022/10/17 00:27:05;;;;;;;2.67;2.45;;;;;;;;;;5093503;28;20493;-70
2022/10/17 00:29:31;;;;;;;4.38;2.90;;;;;;;;;;5091905;28;20020;-70
2022/10/17 00:31:57;;;;;;;4.25;2.15;;;;;;;;;;5094791;28;20032;-70
2022/10/17 00:34:24;;;;;;;3.47;2.20;;;;;;;;;;5091781;28;20024;-70
2022/10/17 00:36:50;;;;;;;4.18;2.28;;;;;;;;;;5093940;28;20047;-70
2022/10/17 00:39:16;;;;;;;4.68;2.55;;;;;;;;;;5092318;28;20456;-71
2022/10/17 00:41:42;;;;;;;4.38;2.40;;;;;;;;;;5099735;28;20113;-70
2022/10/17 00:44:27;;;;;;;3.63;2.97;;;;;;;;;;5093800;28;20456;-70
2022/10/17 00:46:53;;;;;;;5.50;2.47;;;;;;;;;;5093332;28;20050;-70
2022/10/17 00:49:19;;;;;;;2.38;2.17;;;;;;;;;;5089933;28;20500;-72
2022/10/17 00:51:45;;;;;;;2.63;2.28;;;;;;;;;;5091473;28;20032;-70
2022/10/17 00:54:13;;;;;;;3.17;2.20;;;;;;;;;;5093650;28;20019;-70
2022/10/17 00:56:39;;;;;;;2.60;2.40;;;;;;;;;;5092437;28;20334;-70
2022/10/17 00:59:06;;;;;;;2.65;2.45;;;;;;;;;;5075548;28;20437;-71
2022/10/17 01:01:32;;;;;;;2.45;2.25;;;;;;;;;;5090346;28;20119;-70
2022/10/17 01:03:58;;;;;;;2.70;2.50;;;;;;;;;;5092631;28;20028;-70
2022/10/17 01:06:24;;;;;;;3.80;2.33;;;;;;;;;;5086697;28;20024;-70
2022/10/17 01:08:50;;;;;;;3.67;2.35;;;;;;;;;;5093298;28;20027;-69
2022/10/17 01:11:24;;;;;;;4.18;2.55;;;;;;;;;;5091682;28;20051;-71
2022/10/17 01:13:56;;;;;;;3.28;2.20;;;;;;;;;;5093240;28;20040;-70
2022/10/17 01:16:41;;;;;;;2.47;2.20;;;;;;;;;;5091812;28;20495;-70
2022/10/17 01:19:18;;;;;;;3.92;2.50;;;;;;;;;;5092841;28;20036;-69
2022/10/17 01:21:48;;;;;;;3.20;2.28;;;;;;;;;;5091230;28;20028;-70
2022/10/17 01:24:33;;;;;;;10.35;2.50;;;;;;;;;;5090498;28;20063;-70
2022/10/17 01:27:14;;;;;;;4.00;2.28;;;;;;;;;;5092180;28;20405;-70
2022/10/17 01:29:46;;;;;;;6.07;2.60;;;;;;;;;;5091022;28;20508;-70
2022/10/17 01:32:25;;;;;;;6.00;2.22;;;;;;;;;;5099614;28;20042;-70
2022/10/17 01:34:51;;;;;;;5.10;2.38;;;;;;;;;;5092642;28;20058;-70
2022/10/17 01:37:20;;;;;;;3.95;2.45;;;;;;;;;;5092085;28;20390;-71
2022/10/17 01:39:55;;;;;;;5.93;1.90;;;;;;;;;;5091511;28;20020;-70
2022/10/17 01:42:24;;;;;;;2.70;2.40;;;;;;;;;;5085262;28;20048;-71
2022/10/17 01:44:56;;;;;;;10.20;2.15;;;;;;;;;;5101464;28;20020;-71
2022/10/17 01:47:25;;;;;;;4.95;2.28;;;;;;;;;;5091355;28;20487;-71
2022/10/17 01:49:53;;;;;;;6.60;2.08;;;;;;;;;;5090820;28;20036;-70
2022/10/17 01:52:20;;;;;;;3.00;2.25;;;;;;;;;;5082444;28;20055;-71
2022/10/17 01:54:49;;;;;;;2.53;1.65;;;;;;;;;;5092212;28;20488;-70
2022/10/17 01:57:19;;;;;;;2.28;2.03;;;;;;;;;;5081241;28;20385;-70
2022/10/17 01:59:47;;;;;;;3.05;2.40;;;;;;;;;;5084861;28;20023;-70
2022/10/17 02:02:14;;;;;;;3.97;2.10;;;;;;;;;;5082733;28;20032;-70
2022/10/17 02:04:41;;;;;;;5.82;2.40;;;;;;;;;;5084240;28;20878;-70
2022/10/17 02:07:08;;;;;;;2.13;1.92;;;;;;;;;;5081228;28;20020;-70
2022/10/17 02:09:35;;;;;;;3.58;2.17;;;;;;;;;;5080143;28;20089;-70
2022/10/17 02:12:01;;;;;;;4.43;2.30;;;;;;;;;;5066096;28;20031;-70
2022/10/17 02:14:30;;;;;;;2.13;1.85;;;;;;;;;;5088298;28;20384;-70
2022/10/17 02:17:14;;;;;;;2.97;2.13;;;;;;;;;;5082632;28;20020;-69
2022/10/17 02:19:46;;;;;;;2.22;1.92;;;;;;;;;;5080662;28;20039;-70
2022/10/17 02:22:21;;;;;;;2.45;1.98;;;;;;;;;;5085309;28;20040;-70
2022/10/17 02:24:47;;;;;;;2.22;2.03;;;;;;;;;;5083173;28;20476;-69
2022/10/17 02:27:19;;;;;;;2.70;1.98;;;;;;;;;;5082190;28;20049;-70
2022/10/17 02:29:49;;;;;;;1.98;1.77;;;;;;;;;;5086348;28;20020;-70
2022/10/17 02:32:21;;;;;;;3.53;2.35;;;;;;;;;;5080415;28;20558;-70
2022/10/17 02:34:49;;;;;;;2.72;2.53;;;;;;;;;;5085413;28;20027;-70
2022/10/17 02:37:18;;;;;;;4.85;2.63;;;;;;;;;;5086143;28;20488;-70
2022/10/17 02:39:45;;;;;;;4.95;2.50;;;;;;;;;;5083034;28;20087;-70
2022/10/17 02:42:13;;;;;;;5.22;2.53;;;;;;;;;;5084965;28;20036;-68
2022/10/17 02:44:41;;;;;;;4.97;2.35;;;;;;;;;;5085950;28;20020;-69
2022/10/17 02:47:34;;;;;;;3.58;2.30;;;;;;;;;;5084951;28;20115;-69
2022/10/17 02:50:00;;;;;;;5.35;2.50;;;;;;;;;;5060737;28;20404;-69
2022/10/17 02:52:34;;;;;;;4.32;2.85;;;;;;;;;;5082247;28;20423;-69
2022/10/17 02:55:00;;;;;;;3.58;2.55;;;;;;;;;;5082742;28;20029;-69
2022/10/17 02:57:32;;;;;;;3.45;2.63;;;;;;;;;;5084510;28;20019;-69
2022/10/17 03:00:01;;;;;;;3.85;2.60;;;12.00;99.90;;;;;;5085646;28;21312;-69
2022/10/17 03:02:27;;;;;;;2.92;2.50;;;12.00;99.90;;;;;;5084260;28;20037;-70
2022/10/17 03:04:52;;;;;;;3.72;2.75;;;11.90;99.90;;;;;;5081798;28;20587;-70
2022/10/17 03:07:18;;;;;;;4.88;2.40;;;11.80;99.90;;;;;;5080248;28;20152;-71
2022/10/17 03:09:43;;;;;;;5.88;2.10;;;11.80;99.90;;;;;;5085004;28;20076;-70
2022/10/17 03:12:09;;;;;;;2.90;2.63;;;11.70;99.90;;;;;;5083742;28;20488;-69
2022/10/17 03:14:35;;;;;;;5.15;3.05;;;11.70;99.90;;;;;;5086594;28;20039;-70
2022/10/17 03:17:00;;;;;;;5.07;2.80;;;11.70;99.90;;;;;;5090969;28;20081;-70
2022/10/17 03:19:26;;;;;;;2.90;2.60;;;11.70;99.90;;;;;;5090678;28;20099;-70
2022/10/17 03:21:52;;;;;;;4.60;2.60;;;11.60;99.90;;;;;;5086950;28;20107;-69
2022/10/17 03:24:17;;;;;;;5.13;3.25;;;11.60;99.90;;;;;;5090835;28;20378;-71
2022/10/17 03:26:43;;;;;;;3.83;3.10;;;11.60;99.90;;;;;;5090589;28;20032;-69
2022/10/17 03:29:08;;;;;;;5.15;3.03;;;11.50;99.90;;;;;;5091436;28;20469;-69
2022/10/17 03:31:34;;;;;;;4.53;3.08;;;11.50;99.90;;;;;;5088847;28;20028;-70
2022/10/17 03:34:02;;;;;;;3.58;2.78;;;11.50;99.90;;;;;;5091285;28;20036;-70
2022/10/17 03:36:27;;;;;;;6.05;3.25;;;11.50;99.90;;;;;;5089857;28;20123;-70
2022/10/17 03:38:53;;;;;;;3.35;3.00;;;11.60;99.90;;;;;;5088045;28;20063;-70
2022/10/17 03:41:19;;;;;;;3.97;2.72;;;11.60;99.90;;;;;;5087166;28;20063;-71
2022/10/17 03:43:45;;;;;;;2.72;2.53;;;11.50;99.90;;;;;;5090704;28;21334;-70
2022/10/17 03:46:10;;;;;;;5.03;3.10;;;11.60;99.90;;;;;;5090854;28;20020;-70
2022/10/17 03:48:36;;;;;;;4.28;2.88;;;11.50;99.90;;;;;;5089877;28;20229;-70
2022/10/17 03:51:04;;;;;;;5.05;2.72;;;11.50;99.90;;;;;;5092909;28;20024;-70
2022/10/17 03:53:30;;;;;;;12.45;2.90;;;11.50;99.90;;;;;;5092369;28;20031;-70
2022/10/17 03:55:56;;;;;;;7.72;3.40;;;11.50;99.90;;;;;;5090452;28;20030;-70
2022/10/17 03:58:22;;;;;;;4.90;3.20;;;11.50;99.90;;;;;;5093680;28;20105;-70
2022/10/17 04:00:48;;;;;;;4.93;3.78;;;11.50;99.90;;;;;;5093983;28;20028;-71
2022/10/17 04:03:13;;;;;;;4.35;2.97;;;11.40;99.90;;;;;;5093647;28;20036;-70
2022/10/17 04:05:39;;;;;;;6.03;3.67;;;11.40;99.90;;;;;;5093307;28;20650;-70
2022/10/17 04:08:05;;;;;;;5.60;3.50;;;11.40;99.90;;;;;;5094002;28;20077;-70
2022/10/17 04:10:30;;;;;;;4.93;3.25;;;11.40;99.90;;;;;;5093352;28;20024;-70
2022/10/17 04:12:56;;;;;;;5.43;3.20;;;11.40;99.90;;;;;;5090782;28;20449;-70
2022/10/17 04:15:22;;;;;;;6.90;3.10;;;11.40;99.90;;;;;;5093062;28;20070;-71
2022/10/17 04:17:47;;;;;;;7.05;3.40;;;11.40;99.90;;;;;;5093779;28;20031;-70
2022/10/17 04:20:13;;;;;;;5.57;3.47;;;11.40;99.90;;;;;;5076169;28;20054;-70
2022/10/17 04:22:38;;;;;;;5.85;3.05;;;11.40;99.90;;;;;;5091769;28;20214;-70
2022/10/17 04:25:04;;;;;;;4.18;3.40;;;11.40;99.90;;;;;;5093757;28;20024;-70
2022/10/17 04:27:30;;;;;;;8.05;3.42;;;11.30;99.90;;;;;;5096687;28;20032;-70
2022/10/17 04:29:55;;;;;;;6.85;2.95;;;11.40;99.90;;;;;;5088422;28;20024;-70
2022/10/17 04:32:21;;;;;;;7.05;3.80;;;11.40;99.90;;;;;;5091487;28;20106;-70
2022/10/17 04:34:49;;;;;;;7.75;3.85;;;11.40;99.90;;;;;;5094142;28;20016;-70
2022/10/17 04:37:15;;;;;;;8.07;3.17;;;11.50;99.90;;;;;;5093718;28;20028;-70
2022/10/17 04:39:41;;;;;;;4.22;2.90;;;11.50;99.90;;;;;;5093426;28;20032;-70
2022/10/17 04:42:06;;;;;;;10.30;3.75;;;11.50;99.90;;;;;;5093370;28;20035;-69
2022/10/17 04:44:34;;;;;;;4.70;3.00;;;11.50;99.90;;;;;;5092000;28;20461;-70
2022/10/17 04:46:59;;;;;;;5.43;2.90;;;11.50;99.90;;;;;;5093152;28;20062;-71
2022/10/17 04:49:25;;;;;;;3.42;3.08;;;11.40;99.90;;;;;;5087596;28;20048;-70
2022/10/17 04:51:51;;;;;;;4.75;3.00;;;11.40;99.90;;;;;;5093320;28;20467;-70
2022/10/17 04:54:16;;;;;;;3.65;2.95;;;11.40;99.90;;;;;;5074505;28;20059;-70
2022/10/17 04:56:42;;;;;;;5.82;3.00;;;11.30;99.90;;;;;;5092418;28;20428;-69
2022/10/17 04:59:08;;;;;;;3.30;3.00;;;11.30;99.90;;;;;;5093337;28;20059;-69
2022/10/17 05:01:33;;;;;;;3.60;3.30;;;11.20;99.90;;;;;;5090990;28;20115;-68
2022/10/17 05:03:59;;;;;;;4.45;3.38;;;11.20;99.90;;;;;;5091536;28;20043;-69
2022/10/17 05:06:27;;;;;;;7.38;4.30;;;11.20;99.90;;;;;;5087737;28;20094;-69
2022/10/17 05:08:53;;;;;;;4.43;3.63;;;11.20;99.90;;;;;;5093200;28;20047;-68
2022/10/17 05:11:24;;;;;;;8.55;4.07;;;11.20;99.90;;;;;;5091770;28;20501;-70
2022/10/17 05:13:52;;;;;;;10.77;3.92;;;11.30;99.90;;;;;;5093243;28;20067;-68
2022/10/17 05:16:17;;;;;;;9.80;3.60;;;11.30;99.90;;;;;;5092144;28;20115;-71
2022/10/17 05:18:43;;;;;;;3.63;3.33;;;11.30;99.90;;;;;;5092566;28;20125;-70
2022/10/17 05:21:09;;;;;;;7.65;3.55;;;11.30;99.90;;;;;;5093552;28;20032;-70
2022/10/17 05:23:35;;;;;;;3.70;3.28;;;11.30;99.90;;;;;;5089654;28;20515;-70
2022/10/17 05:26:00;;;;;;;4.40;3.13;;;11.30;99.90;;;;;;5087368;28;20032;-70
2022/10/17 05:28:26;;;;;;;3.92;3.17;;;11.30;99.90;;;;;;5092048;28;20070;-70
2022/10/17 05:30:51;;;;;;;5.00;3.60;;;11.30;99.90;;;;;;5087054;28;20155;-70
2022/10/17 05:33:17;;;;;;;4.10;3.33;;;11.30;99.90;;;;;;5071181;28;20027;-71
2022/10/17 05:35:43;;;;;;;5.28;4.10;;;11.30;99.90;;;;;;5088292;28;20073;-70
2022/10/17 05:38:08;;;;;;;6.50;3.80;;;11.30;99.90;;;;;;5082675;28;20078;-70
2022/10/17 05:40:34;;;;;;;5.95;3.70;;;11.30;99.90;;;;;;5084210;28;20111;-70
2022/10/17 05:42:59;;;;;;;6.75;3.45;;;11.30;99.90;;;;;;5084363;28;20153;-70
2022/10/17 05:45:25;;;;;;;5.03;3.22;;;11.30;99.90;;;;;;5086634;28;20032;-70
2022/10/17 05:47:51;;;;;;;4.53;3.20;;;11.30;99.90;;;;;;5084023;28;20426;-69
2022/10/17 05:50:19;;;;;;;5.85;3.85;;;11.30;99.90;;;;;;5085882;28;20052;-71
2022/10/17 05:52:45;;;;;;;6.35;3.83;;;11.30;99.90;;;;;;5084649;28;20040;-70
2022/10/17 05:55:10;;;;;;;5.82;3.80;;;11.30;99.90;;;;;;5083424;28;20023;-69
2022/10/17 05:57:36;;;;;;;6.30;4.10;;;11.20;99.90;;;;;;5082157;28;20027;-70
2022/10/17 06:00:03;;;;;;;6.95;4.03;;;11.30;99.90;;;;;;5083235;28;20040;-68
2022/10/17 06:02:29;;;;;;;5.10;4.10;;;11.30;99.90;;;;;;5083576;28;20389;-70
2022/10/17 06:04:54;;;;;;;6.25;4.57;;;11.30;99.90;;;;;;5084296;28;20035;-70
2022/10/17 06:07:20;;;;;;;7.20;4.22;;;11.20;99.90;;;;;;5081728;28;20020;-71
2022/10/17 06:09:46;;;;;;;6.45;4.00;;;11.30;99.90;;;;;;5087198;28;20024;-71
2022/10/17 06:12:11;;;;;;;6.18;4.05;;;11.30;99.90;;;;;;5082747;28;20257;-70
2022/10/17 06:14:37;;;;;;;6.68;4.65;;;11.30;99.90;;;;;;5088919;28;20103;-69
2022/10/17 06:17:03;;;;;;;6.88;4.38;;;11.30;99.90;;;;;;5084646;28;20032;-69
2022/10/17 06:19:28;;;;;;;8.77;4.57;;;11.30;99.90;;;;;;5087040;28;20099;-70
2022/10/17 06:21:54;;;;;;;9.60;4.93;;;11.40;99.90;;;;;;5091156;28;20027;-70
2022/10/17 06:24:19;;;;;;;7.05;4.25;;;11.40;99.90;;;;;;5084628;28;20031;-71
2022/10/17 06:26:46;;;;;;;14.38;5.30;;;11.40;99.90;;;;;;5090174;28;20024;-70
2022/10/17 06:29:12;;;;;;;6.60;4.10;;;11.40;99.90;;;;;;5088852;28;20048;-70
2022/10/17 06:31:37;;;;;;;10.68;4.43;;;11.40;99.90;;;;;;5082812;28;20184;-70
2022/10/17 06:34:03;;;;;;;6.10;4.50;;;11.40;99.90;;;;;;5066465;28;20032;-72
2022/10/17 06:36:28;;;;;;;29.58;7.45;;;11.40;99.90;;;;;;5077819;28;20092;-69
2022/10/17 06:38:54;;;;;;;12.18;5.60;;;11.40;99.90;;;;;;5084903;28;20528;-69
2022/10/17 06:41:20;;;;;;;16.13;5.38;;;11.40;99.90;;;;;;5083714;28;20095;-70
2022/10/17 06:43:46;;;;;;;7.95;4.38;;;11.50;99.90;;;;;;5085001;28;20040;-68
2022/10/17 06:46:14;;;;;;;9.65;4.65;;;11.60;99.90;;;;;;5082971;28;20396;-69
2022/10/17 06:48:39;;;;;;;6.20;4.03;;;11.60;99.90;;;;;;5084467;28;20043;-70
2022/10/17 06:51:08;;;;;;;5.18;3.80;;;11.70;99.90;;;;;;5087399;28;20039;-70
2022/10/17 06:53:34;;;;;;;11.77;4.32;;;11.80;99.90;;;;;;5089905;28;20417;-70
2022/10/17 06:56:02;;;;;;;8.30;4.00;;;11.90;99.90;;;;;;5083790;28;20047;-70
2022/10/17 06:58:29;;;;;;;7.13;4.53;;;12.00;99.90;;;;;;5085041;28;20028;-70
2022/10/17 07:01:03;;;;;;;6.68;3.90;;;12.10;99.90;;;;;;5084205;28;20031;-70
2022/10/17 07:03:29;;;;;;;5.60;3.83;;;12.20;99.90;;;;;;5082584;28;20287;-69
2022/10/17 07:05:56;;;;;;;7.50;3.75;;;12.30;99.90;;;;;;5079396;28;20063;-69
2022/10/17 07:08:21;;;;;;;10.05;4.03;;;12.40;99.90;;;;;;5089975;28;20541;-70
2022/10/17 07:10:47;;;;;;;8.13;4.13;;;12.50;99.90;;;;;;5089946;28;20067;-69
2022/10/17 07:13:13;;;;;;;6.00;3.88;;;12.60;99.90;;;;;;5090228;28;20028;-70
2022/10/17 07:15:40;;;;;;;11.10;4.47;;;12.70;99.90;;;;;;5089568;28;20032;-70
2022/10/17 07:18:05;;;;;;;12.77;4.43;;;12.80;99.90;;;;;;5078581;28;20377;-70
2022/10/17 07:20:32;;;;;;;7.90;5.00;;;13.00;99.90;;;;;;5089350;28;20021;-69
2022/10/17 07:22:57;;;;;;;11.50;4.25;;;13.20;99.90;;;;;;5090668;28;20036;-69
2022/10/17 07:25:23;;;;;;;6.72;4.25;;;13.30;99.90;;;;;;5092130;28;20024;-70
2022/10/17 07:27:49;;;;;;;9.75;4.45;;;13.50;99.90;;;;;;5094836;28;20062;-69
2022/10/17 07:30:15;;;;;;;7.55;4.95;;;13.60;99.90;;;;;;5093927;28;20112;-70
2022/10/17 07:32:42;;;;;;;7.03;4.32;;;13.70;99.90;;;;;;5093641;28;20044;-70
2022/10/17 07:35:08;;;;;;;5.32;3.63;;;13.80;99.90;;;;;;5094373;28;20035;-70
2022/10/17 07:37:34;;;;;;;12.60;5.32;;;13.90;99.90;;;;;;5093537;28;20028;-70
2022/10/17 07:40:00;;;;;;;6.38;4.60;;;14.00;99.90;;;;;;5094257;28;20449;-70
2022/10/17 07:42:27;;;;;;;10.88;4.55;;;14.10;99.90;;;;;;5093004;28;20032;-69
2022/10/17 07:44:53;;;;;;;8.45;4.15;;;14.20;99.90;;;;;;5094490;28;20107;-70
2022/10/17 07:47:18;;;;;;;10.32;4.43;;;14.30;99.90;;;;;;5093487;28;20081;-71
2022/10/17 07:49:44;;;;;;;7.63;3.90;;;14.50;99.90;;;;;;5093454;28;20044;-71
2022/10/17 07:52:10;;;;;;;7.82;3.90;;;14.60;99.90;;;;;;5080200;28;20028;-70
2022/10/17 07:54:36;;;;;;;9.73;4.65;;;14.70;99.90;;;;;;5087231;28;20056;-70
2022/10/17 07:57:02;;;;;;;11.65;3.05;;;14.80;99.90;;;;;;5084631;28;20024;-71
2022/10/17 07:59:28;;;;;;;7.68;4.30;;;14.90;99.90;;;;;;5092735;28;20031;-70
2022/10/17 08:01:58;;;;;;;6.85;3.85;;;15.10;99.90;;;;;;5075111;28;20035;-71
2022/10/17 08:04:24;;;;;;;4.97;3.35;;;15.20;99.90;;;;;;5092805;28;20055;-70
2022/10/17 08:06:51;;;;;;;8.52;3.85;;;15.30;99.90;;;;;;5090781;28;20032;-71
2022/10/17 08:09:16;;;;;;;12.25;3.55;;;15.50;99.90;;;;;;5092643;28;20032;-70
2022/10/17 08:11:45;;;;;;;10.80;3.63;;;15.70;99.90;;;;;;5092653;28;20027;-70
2022/10/17 08:14:12;;;;;;;5.43;3.30;;;15.80;99.90;;;;;;5086734;28;20040;-70
2022/10/17 08:16:39;;;;;;;6.25;3.33;;;15.80;99.90;;;;;;5091056;28;20020;-70
2022/10/17 08:19:07;;;;;;;13.02;4.20;;;15.90;99.90;;;;;;5072201;28;20039;-71
2022/10/17 08:21:33;;;;;;;11.63;3.35;;;16.00;99.90;;;;;;5080948;28;20169;-71
2022/10/17 08:24:00;;;;;;;11.48;4.10;;;16.20;99.90;;;;;;5089914;28;20695;-70
2022/10/17 08:26:26;;;;;;;6.32;3.22;;;16.30;99.90;;;;;;5071002;28;20028;-70
2022/10/17 08:28:52;;;;;;;6.82;3.13;;;16.50;99.90;;;;;;5088321;28;20490;-70
2022/10/17 08:31:19;;;;;;;11.80;3.58;;;16.50;99.90;;;;;;5091283;28;20102;-71
2022/10/17 08:33:46;;;;;;;11.68;3.75;;;16.70;99.90;;;;;;5093196;28;20042;-71
2022/10/17 08:36:14;;;;;;;9.88;3.35;;;16.70;99.90;;;;;;5091684;28;20024;-70
2022/10/17 08:38:42;;;;;;;12.95;3.92;;;16.80;99.90;;;;;;5090573;28;20035;-70
2022/10/17 08:41:26;;;;;;;6.93;3.20;;;16.80;99.90;;;;;;5088479;28;20357;-71
2022/10/17 08:44:13;;;;;;;12.02;3.20;;;16.90;99.90;;;;;;5088305;28;20108;-70
2022/10/17 08:46:41;;;;;;;11.93;3.42;;;17.00;99.90;;;;;;5087626;28;20023;-70
2022/10/17 08:49:15;;;;;;;6.53;2.80;;;17.00;99.90;;;;;;5092628;28;20048;-70
2022/10/17 08:51:50;;;;;;;11.23;4.05;;;17.20;99.90;;;;;;5092089;28;20064;-70
2022/10/17 08:54:19;;;;;;;8.57;3.25;;;17.40;99.90;;;;;;5093062;28;20460;-71
2022/10/17 08:56:48;;;;;;;11.98;3.35;;;17.60;99.90;;;;;;5092424;28;20028;-71
2022/10/17 08:59:18;;;;;;;10.07;3.38;;;17.80;99.90;;;;;;5093034;28;20103;-71
2022/10/17 09:01:44;;;;;;;;;;;18.00;99.90;;;;;;5092812;28;20031;-71
2022/10/17 09:04:48;;;;;;;11.60;3.60;;;18.10;99.90;;;;;;5092627;28;20379;-71
2022/10/17 09:07:44;;;;;;;19.85;4.13;;;18.30;99.90;;;;;;5092433;28;20111;-71
2022/10/17 09:10:38;;;;;;;6.68;3.45;;;18.50;99.90;;;;;;5092937;28;20027;-71
2022/10/17 09:13:26;;;;;;;10.40;3.28;;;18.60;99.90;;;;;;5092961;28;20027;-71
2022/10/17 09:16:10;;;;;;;5.22;3.13;;;18.80;99.90;;;;;;5091629;28;20024;-71
2022/10/17 09:18:40;;;;;;;8.35;3.45;;;18.90;99.90;;;;;;5070023;28;20381;-71
2022/10/17 09:21:31;;;;;;;13.75;3.38;;;19.00;99.90;;;;;;5092197;28;20031;-71
2022/10/17 09:24:03;;;;;;;7.68;2.90;;;19.20;99.90;;;;;;5087476;28;20090;-71
2022/10/17 09:26:29;;;;;;;8.30;2.83;;;19.20;99.90;;;;;;5085729;28;20012;-71
2022/10/17 09:28:58;;;;;;;9.35;3.13;;;19.30;99.90;;;;;;5092204;28;20086;-71
2022/10/17 09:31:34;;;;;;;6.25;3.00;;;19.40;99.90;;;;;;5085926;28;20028;-71
2022/10/17 09:34:01;;;;;;;11.57;3.10;;;19.50;99.90;;;;;;5092436;28;20100;-70
2022/10/17 09:36:34;;;;;;;11.25;3.25;;;19.50;99.90;;;;;;5090821;28;20394;-71
2022/10/17 09:39:17;;;;;;;7.78;2.90;;;19.60;99.90;;;;;;5091875;28;20027;-69
2022/10/17 09:41:54;;;;;;;8.38;3.35;;;19.70;99.90;;;;;;5091335;28;20046;-70
2022/10/17 09:44:23;;;;;;;6.63;2.80;;;19.80;99.90;;;;;;5091376;28;20113;-72
2022/10/17 09:46:57;;;;;;;9.60;3.42;;;19.90;99.90;;;;;;5091660;28;20023;-69
2022/10/17 09:49:35;;;;;;;8.20;2.70;;;19.90;99.90;;;;;;5090549;28;20064;-70
2022/10/17 09:52:03;;;;;;;5.90;2.80;;;20.00;99.90;;;;;;5091804;28;20028;-70
2022/10/17 09:54:40;;;;;;;13.20;4.03;;;20.10;99.90;;;;;;5069973;28;20027;-70
2022/10/17 09:57:07;;;;;;;8.68;2.75;;;20.20;99.90;;;;;;5092055;28;20024;-70
2022/10/17 09:59:35;;;;;;;9.55;2.65;;;20.20;99.90;;;;;;5090915;28;20023;-71
2022/10/17 10:02:19;;;;;;;10.30;3.55;;;20.30;99.90;;;;;;5083277;28;20032;-71
2022/10/17 10:04:56;;;;;;;8.32;2.80;;;20.40;99.90;;;;;;5080370;28;20107;-72
2022/10/17 10:07:24;;;;;;;9.35;2.75;;;20.50;99.90;;;;;;5090439;28;20056;-70
2022/10/17 10:09:50;;;;;;;5.78;2.70;;;20.60;99.90;;;;;;5091596;28;20477;-70
2022/10/17 10:12:37;;;;;;;10.77;2.70;;;20.70;99.90;;;;;;5091014;28;20358;-69
2022/10/17 10:15:30;;;;;;;6.28;3.03;;;20.90;99.90;;;;;;5091436;28;20089;-69
2022/10/17 10:17:55;;;;;;;9.82;3.20;;;21.00;99.90;;;;;;5091322;28;20036;-69
2022/10/17 10:20:40;;;;;;;10.25;3.45;;;21.10;99.90;;;;;;5090539;28;20032;-70
2022/10/17 10:23:16;;;;;;;15.57;3.33;;;21.40;99.90;;;;;;5091061;28;20036;-70
2022/10/17 10:26:17;;;;;;;5.63;2.90;;;21.50;99.90;;;;;;5090374;28;20120;-69
2022/10/17 10:28:59;;;;;;;5.60;2.72;;;21.60;99.90;;;;;;5081408;28;20066;-69
2022/10/17 10:31:37;;;;;;;6.25;2.95;;;21.70;99.90;;;;;;5089899;28;20031;-69
2022/10/17 10:34:13;;;;;;;5.13;2.40;;;21.80;99.90;;;;;;5091389;28;20107;-70
2022/10/17 10:36:59;;;;;;;5.82;2.05;;;21.90;99.90;;;;;;5090350;28;20051;-70
2022/10/17 10:39:32;;;;;;;4.55;2.85;;;22.00;99.90;;;;;;5090926;28;20019;-69
2022/10/17 10:41:58;;;;;;;5.75;2.90;;;22.20;99.90;;;;;;5090822;28;20039;-69
2022/10/17 10:44:26;;;;;;;7.55;2.47;;;22.20;99.90;;;;;;5089787;28;20607;-69
2022/10/17 10:47:15;;;;;;;9.02;2.38;;;22.40;99.90;;;;;;5090686;28;20042;-69
2022/10/17 10:49:41;;;;;;;3.75;1.67;;;22.50;99.90;;;;;;5089827;28;20142;-70
2022/10/17 10:52:13;;;;;;;3.20;1.73;;;;;;;;;;5090364;28;20020;-69
2022/10/17 10:54:42;;;;;;;7.68;1.88;;;;;;;;;;5090143;28;20590;-69
2022/10/17 10:57:12;;;;;;;9.73;1.98;;;;;;;;;;5090193;28;20111;-70
2022/10/17 10:59:47;;;;;;;1.52;1.40;;;;;;;;;;5071604;28;20051;-76
2022/10/17 11:02:18;;;;;;;2.83;1.90;;;;;;;;;;5090045;28;20085;-74
2022/10/17 11:04:55;;;;;;;3.75;1.80;;;;;;;;;;5090807;28;20052;-74
2022/10/17 11:07:34;;;;;;;5.93;1.75;;;;;;;;;;5089847;28;20024;-74
2022/10/17 11:10:04;;;;;;;4.80;1.90;;;;;;;;;;5090724;28;20066;-74
2022/10/17 11:12:35;;;;;;;3.60;1.60;;;;;;;;;;5078901;28;20380;-70
2022/10/17 11:15:26;;;;;;;1.60;1.33;;;23.80;99.90;;;;;;5090488;28;20035;-76
2022/10/17 11:18:21;;;;;;;2.13;1.40;;;23.70;99.90;;;;;;5090241;28;20031;-68
2022/10/17 11:20:57;;;;;;;3.70;1.60;;;23.80;99.90;;;;;;5079886;28;20587;-74
2022/10/17 11:23:41;;;;;;;4.40;1.58;;;24.00;99.90;;;;;;5086581;28;20032;-82
2022/10/17 11:26:13;;;;;;;2.92;1.48;;;24.10;99.90;;;;;;5065609;28;20073;-81
2022/10/17 11:28:39;;;;;;;3.83;1.25;;;24.30;99.90;;;;;;5072887;28;20588;-75
2022/10/17 11:31:13;;;;;;;5.65;1.45;;;24.40;99.00;;;;;;5089255;28;20031;-79
2022/10/17 11:33:49;;;;;;;5.55;1.92;;;24.60;98.40;;;;;;5079454;28;20035;-73
2022/10/17 11:36:18;;;;;;;6.53;2.17;;;24.80;97.10;;;;;;5090170;28;20020;-76
2022/10/17 11:38:53;;;;;;;2.13;1.50;;;24.90;96.60;;;;;;5084329;28;20096;-76
2022/10/17 11:41:32;;;;;;;4.32;1.90;;;25.10;95.80;;;;;;5082389;28;20020;-78
2022/10/17 11:44:17;;;;;;;4.10;1.30;;;25.20;95.50;;;;;;5082761;28;20449;-77
2022/10/17 11:46:47;;;;;;;7.80;1.75;;;25.30;93.90;;;;;;5080830;28;20168;-75
2022/10/17 11:49:20;;;;;;;6.63;1.50;;;25.50;93.30;;;;;;5085711;28;20032;-80
2022/10/17 11:52:07;;;;;;;11.98;1.80;;;25.60;92.70;;;;;;5083670;28;20032;-82
2022/10/17 11:54:55;;;;;;;3.60;1.65;;;25.70;92.30;;;;;;5081810;28;20452;-80
2022/10/17 11:57:42;;;;;;;4.50;1.50;;;25.90;92.20;;;;;;5080669;28;20040;-77
2022/10/17 12:00:23;;;;;;;3.33;1.58;;;26.00;91.40;;;;;;5077618;28;20063;-69
2022/10/17 12:03:07;;;;;;;2.72;1.40;;;26.20;90.70;;;;;;5088202;28;20032;-82
2022/10/17 12:06:04;;;;;;;4.47;1.77;;;26.60;89.00;;;;;;5088599;28;20028;-70
2022/10/17 12:08:56;;;;;;;6.03;1.60;;;26.90;87.50;;;;;;5038118;28;20101;-79
2022/10/17 12:11:28;;;;;;;4.10;1.35;;;27.30;86.60;;;;;;5091036;28;20047;-77
2022/10/17 12:13:55;;;;;;;2.70;1.50;;;27.60;85.00;;;;;;5083010;28;20024;-82
2022/10/17 12:16:22;;;;;;;5.57;1.83;;;27.80;83.20;;;;;;5086430;28;20066;-83
2022/10/17 12:19:11;;;;;;;5.90;1.88;;;27.90;82.90;;;;;;5094306;28;20021;-78
2022/10/17 12:22:02;;;;;;;3.95;1.70;;;28.00;82.00;;;;;;5092244;28;20024;-79
2022/10/17 12:24:42;;;;;;;6.22;1.50;;;28.20;81.10;;;;;;5093606;28;20085;-74
2022/10/17 12:27:34;;;;;;;4.57;1.75;;;28.30;80.70;;;;;;5096493;28;20028;-86
2022/10/17 12:30:13;;;;;;;5.10;1.58;;;28.50;79.60;;;;;;5086845;28;20047;-73
2022/10/17 12:33:03;;;;;;;5.13;2.05;;;28.70;78.60;;;;;;5082675;28;20063;-73
2022/10/17 12:35:30;;;;;;;5.32;1.60;;;28.80;77.90;;;;;;5092331;28;20020;-81
2022/10/17 12:38:02;;;;;;;4.82;1.73;;;29.10;75.70;;;;;;5094089;28;20024;-80
2022/10/17 12:40:34;;;;;;;6.70;1.95;;;29.10;75.30;;;;;;5091915;28;20067;-80
2022/10/17 12:43:20;;;;;;;4.47;1.15;;;29.20;75.20;;;;;;5094081;28;20044;-83
2022/10/17 12:45:47;;;;;;;15.43;2.88;;;29.30;74.40;;;;;;5092325;28;20040;-85
2022/10/17 12:48:32;;;;;;;2.35;1.45;;;29.30;74.10;;;;;;5094903;28;20035;-78
2022/10/17 12:51:11;;;;;;;6.32;1.52;;;29.30;74.10;;;;;;5092052;28;20032;-82
2022/10/17 12:53:52;;;;;;;4.68;1.77;;;29.20;73.80;;;;;;5091127;28;20028;-75
2022/10/17 12:56:20;;;;;;;4.82;1.55;;;29.00;75.00;;;;;;5074028;28;20028;-69
2022/10/17 12:58:49;;;;;;;2.72;1.52;;;29.30;74.30;;;;;;5093443;28;20020;-78
2022/10/17 13:01:26;;;;;;;4.53;1.63;;;29.40;73.80;;;;;;5092342;28;20035;-79
2022/10/17 13:03:53;;;;;;;6.28;1.67;;;29.40;73.80;;;;;;5083520;28;20032;-81
2022/10/17 13:06:26;;;;;;;3.03;1.70;;;29.40;73.30;;;;;;5092759;28;20118;-73
2022/10/17 13:08:57;;;;;;;5.20;1.45;;;29.30;73.00;;;;;;5093445;28;20099;-77
2022/10/17 13:11:26;;;;;;;5.03;1.92;;;29.20;72.70;;;;;;5090819;28;20039;-74
2022/10/17 13:13:54;;;;;;;4.70;1.52;;;29.00;72.90;;;;;;5089604;28;20028;-79
2022/10/17 13:16:27;;;;;;;2.30;1.40;;;28.90;72.80;;;;;;5091237;28;20032;-78
2022/10/17 13:18:53;;;;;;;5.10;1.90;;;28.80;72.60;;;;;;5090102;28;20469;-74
2022/10/17 13:21:19;;;;;;;3.58;1.40;;;28.80;73.10;;;;;;5091471;28;20069;-75
2022/10/17 13:23:46;;;;;;;3.17;1.42;;;28.70;73.50;;;;;;5084194;28;20074;-72
2022/10/17 13:26:26;;;;;;;4.40;1.90;;;28.70;73.60;;;;;;5081450;28;20035;-72
2022/10/17 13:29:09;;;;;;;6.82;1.98;;;28.60;81.20;;;;;;5085503;28;20051;-72